Hlavní strana
METAR-TAF:

METAR-TAF

Letiště :

Victoria, Mahé, Seychely

zeměpisná šířka: 04-40S, zeměpisná délka: 055-31E, výška: 3 m

Aktuální stav počasí

Zpráva byla vytvořena před 1 hodinou a 9 minutami, v 22:00 UTC
Jižní vítr 5 kt, proměnlivý mezi jihovýchodním a jihozápadním
Teplota 28°C
Vlhkost vzduchu 79%
Tlak 1008 hPa
Viditelnost 10 km a více

METAR: FSIA 122200Z 18005KT 130V220 9999 FE017 28/24 Q1008 NOSIG

Čas: 03:09 (23:09 UTC)

Předpověď počasí

Zpráva byla vytvořena před 6 hodinami a 3 minutami, v 17:06 UTC
Předpověď platná od 12 v 18 UTC do 13 v 18 UTC
Jihovýchodní vítr 10 kt
Viditelnost 10 km a více
Polojasno ve výšce 2100 ft
Pravděpodobnost 40% :
Dočasný
od 13 v 06 UTC do 13 v 12 UTC
Skoro jasno ve výšce 1600 ft, Cumulonimbus.
Oblačno až skoro zataženo ve výšce 2000 ft
slabé dešťové přeháňky

TAF: FSIA 121706Z 1218/1318 14010KT 9999 SCT021 PROB40 TEMPO 1306/1312 -SHRA FEW016CB BKN020

Stav a předpovědi počasí z více než 4 000 letišť (zprávy METAR a TAF).

Červené a žluté tečky na mapě představují dostupné meteorologické stanice.

Když kurzor umístíte na tečku, zobrazí se název stanice.

Pak kliknutím zobrazíte stav a předpověď počasí.

Chcete-li změnit mapu, kliknutím na zelené tlačítko se znaménkem +mapu přiblížíte, kliknutím na zelené tlačítko se znaménkem – mapu oddálíte a kliknutím na zelené šipky přejdete na sousední mapy.


METAR-TAF: